createdAt,value
2023-01-07T00:01:06.479Z,18.07
2023-01-07T00:03:35.013Z,18.27
2023-01-07T00:06:04.848Z,18.40
2023-01-07T00:08:34.823Z,19.20
2023-01-07T00:11:03.422Z,17.87
2023-01-07T00:13:31.736Z,18.87
2023-01-07T00:16:02.548Z,20.67
2023-01-07T00:18:31.100Z,19.40
2023-01-07T00:20:59.850Z,18.47
2023-01-07T00:23:29.027Z,17.97
2023-01-07T00:26:02.417Z,19.20
2023-01-07T00:28:30.809Z,18.80
2023-01-07T00:31:02.665Z,18.00
2023-01-07T00:33:31.352Z,19.03
2023-01-07T00:36:02.940Z,18.07
2023-01-07T00:38:31.569Z,20.77
2023-01-07T00:40:59.708Z,19.63
2023-01-07T00:43:28.037Z,20.53
2023-01-07T00:45:56.443Z,22.40
2023-01-07T00:48:26.441Z,23.03
2023-01-07T00:50:55.366Z,23.27
2023-01-07T00:53:25.144Z,22.90
2023-01-07T00:55:53.577Z,22.43
2023-01-07T00:58:23.776Z,24.20
2023-01-07T01:00:57.301Z,24.43
2023-01-07T01:03:28.718Z,23.80
2023-01-07T01:06:02.941Z,22.07
2023-01-07T01:08:31.169Z,23.93
2023-01-07T01:11:04.632Z,25.00
2023-01-07T01:13:33.280Z,24.03
2023-01-07T01:16:01.566Z,24.83
2023-01-07T01:18:31.213Z,24.23
2023-01-07T01:21:04.841Z,25.83
2023-01-07T01:23:33.155Z,24.67
2023-01-07T01:26:06.047Z,27.23
2023-01-07T01:28:35.425Z,27.10
2023-01-07T01:31:04.118Z,25.90
2023-01-07T01:33:43.923Z,25.87
2023-01-07T01:36:13.342Z,29.30
2023-01-07T01:38:43.020Z,26.73
2023-01-07T01:41:12.499Z,28.23
2023-01-07T01:43:44.466Z,27.13
2023-01-07T01:46:17.520Z,26.87
2023-01-07T01:48:52.333Z,28.07
2023-01-07T01:51:23.403Z,27.87
2023-01-07T01:53:53.746Z,28.97
2023-01-07T01:56:25.719Z,28.80
2023-01-07T01:58:58.187Z,28.67
2023-01-07T02:01:27.605Z,28.63
2023-01-07T02:03:58.695Z,30.43
2023-01-07T02:06:32.036Z,29.60
2023-01-07T02:09:00.306Z,30.40
2023-01-07T02:11:38.246Z,30.53
2023-01-07T02:14:26.703Z,29.50
2023-01-07T02:17:01.106Z,28.65
2023-01-07T02:20:04.162Z,27.75
2023-01-07T02:23:07.801Z,29.17
2023-01-07T02:26:01.595Z,27.55
2023-01-07T02:28:52.218Z,31.43
2023-01-07T02:31:37.047Z,31.67
2023-01-07T02:34:13.806Z,30.35
2023-01-07T02:36:51.248Z,30.98
2023-01-07T02:39:32.572Z,30.03
2023-01-07T02:42:04.867Z,30.30
2023-01-07T02:44:41.953Z,28.13
2023-01-07T02:47:17.263Z,29.83
2023-01-07T02:49:49.159Z,29.13
2023-01-07T02:52:22.320Z,27.67
2023-01-07T02:54:56.679Z,28.80
2023-01-07T02:58:09.979Z,28.33
2023-01-07T03:01:02.333Z,28.65
2023-01-07T03:03:44.317Z,27.63
2023-01-07T03:06:32.127Z,26.33
2023-01-07T03:09:07.862Z,29.20
2023-01-07T03:11:43.310Z,27.27
2023-01-07T03:14:19.239Z,27.15
2023-01-07T03:16:55.132Z,28.20
2023-01-07T03:19:28.316Z,27.30
2023-01-07T03:22:00.292Z,27.17
2023-01-07T03:24:32.278Z,27.42
2023-01-07T03:27:04.293Z,28.20
2023-01-07T03:29:35.686Z,27.50
2023-01-07T03:32:09.954Z,27.80
2023-01-07T03:34:39.627Z,26.25
2023-01-07T03:37:11.732Z,26.17
2023-01-07T03:39:41.732Z,26.97
2023-01-07T03:42:29.656Z,26.90
2023-01-07T03:44:58.806Z,26.75
2023-01-07T03:47:30.314Z,26.15
2023-01-07T03:49:58.968Z,25.33
2023-01-07T03:52:28.500Z,25.33
2023-01-07T03:54:56.826Z,24.93
2023-01-07T03:57:25.057Z,27.00
2023-01-07T03:59:53.328Z,26.13
2023-01-07T04:02:21.861Z,26.50
2023-01-07T04:04:50.421Z,26.20
2023-01-07T04:07:19.840Z,26.80
2023-01-07T04:09:50.894Z,25.73
2023-01-07T04:12:19.252Z,26.47
2023-01-07T04:14:47.656Z,26.00
2023-01-07T04:17:16.228Z,24.20
2023-01-07T04:19:45.452Z,25.43
2023-01-07T04:22:13.750Z,24.47
2023-01-07T04:24:42.677Z,25.27
2023-01-07T04:27:12.470Z,24.37
2023-01-07T04:29:41.950Z,24.98
2023-01-07T04:32:10.250Z,26.00
2023-01-07T04:34:38.485Z,24.15
2023-01-07T04:37:07.746Z,23.77
2023-01-07T04:39:36.174Z,23.75
2023-01-07T04:42:04.411Z,23.80
2023-01-07T04:44:34.978Z,20.97
2023-01-07T04:47:03.366Z,23.27
2023-01-07T04:49:32.266Z,22.38
2023-01-07T04:52:00.473Z,22.10
2023-01-07T04:54:29.056Z,22.45
2023-01-07T04:56:57.576Z,22.50
2023-01-07T04:59:25.886Z,22.83
2023-01-07T05:01:56.452Z,21.17
2023-01-07T05:04:24.721Z,20.75
2023-01-07T05:06:53.025Z,22.37
2023-01-07T05:09:21.600Z,22.43
2023-01-07T05:11:49.770Z,21.87
2023-01-07T05:14:18.712Z,22.13
2023-01-07T05:16:49.389Z,20.87
2023-01-07T05:19:19.148Z,19.10
2023-01-07T05:21:49.653Z,19.70
2023-01-07T05:24:19.998Z,19.63
2023-01-07T05:26:48.221Z,20.03
2023-01-07T05:29:18.930Z,21.07
2023-01-07T05:31:48.835Z,20.40
2023-01-07T05:34:18.792Z,20.90
2023-01-07T05:36:47.739Z,20.40
2023-01-07T05:39:15.953Z,19.27
2023-01-07T05:41:44.223Z,20.40
2023-01-07T05:44:12.574Z,20.95
2023-01-07T05:46:40.844Z,20.53
2023-01-07T05:49:09.217Z,21.87
2023-01-07T05:51:38.964Z,20.05
2023-01-07T05:54:07.427Z,20.45
2023-01-07T05:56:35.708Z,21.95
2023-01-07T05:59:03.912Z,21.30
2023-01-07T06:01:32.344Z,21.17
2023-01-07T06:04:00.607Z,21.67
2023-01-07T06:06:28.850Z,20.27
2023-01-07T06:08:58.828Z,21.98
2023-01-07T06:11:27.127Z,19.50
2023-01-07T06:13:55.336Z,19.08
2023-01-07T06:16:23.615Z,18.83
2023-01-07T06:18:51.741Z,18.52
2023-01-07T06:21:21.554Z,19.25
2023-01-07T06:23:49.742Z,19.87
2023-01-07T06:26:19.376Z,18.70
2023-01-07T06:28:47.505Z,19.67
2023-01-07T06:31:15.859Z,20.25
2023-01-07T06:33:45.129Z,19.67
2023-01-07T06:36:13.425Z,20.50
2023-01-07T06:38:42.349Z,20.42
2023-01-07T06:41:10.597Z,22.55
2023-01-07T06:43:40.113Z,21.83
2023-01-07T06:46:08.587Z,21.50
2023-01-07T06:48:36.769Z,24.17
2023-01-07T06:51:05.215Z,23.45
2023-01-07T06:53:33.609Z,25.00
2023-01-07T06:56:01.838Z,25.00
2023-01-07T06:58:29.983Z,23.95
2023-01-07T07:01:04.900Z,24.48
2023-01-07T07:03:33.196Z,22.98
2023-01-07T07:06:01.925Z,24.38
2023-01-07T07:08:30.237Z,23.73
2023-01-07T07:10:58.422Z,23.13
2023-01-07T07:13:26.630Z,22.87
2023-01-07T07:15:54.936Z,22.57
2023-01-07T07:18:24.536Z,23.88
2023-01-07T07:20:52.697Z,24.05
2023-01-07T07:23:21.050Z,22.90
2023-01-07T07:25:49.178Z,23.83
2023-01-07T07:28:17.385Z,22.35
2023-01-07T07:30:47.547Z,22.90
2023-01-07T07:33:19.386Z,23.73
2023-01-07T07:35:49.586Z,23.05
2023-01-07T07:38:19.116Z,24.53
2023-01-07T07:40:47.693Z,24.05
2023-01-07T07:43:16.328Z,22.35
2023-01-07T07:45:45.059Z,22.35
2023-01-07T07:48:15.681Z,21.00
2023-01-07T07:50:44.272Z,20.17
2023-01-07T07:53:15.193Z,18.10
2023-01-07T07:55:43.492Z,16.90
2023-01-07T07:58:12.004Z,16.27
2023-01-07T08:00:40.337Z,15.52
2023-01-07T08:03:08.828Z,16.35
2023-01-07T08:05:37.350Z,14.63
2023-01-07T08:08:05.961Z,14.38
2023-01-07T08:10:35.567Z,15.00
2023-01-07T08:13:03.845Z,16.27
2023-01-07T08:15:32.199Z,15.00
2023-01-07T08:18:01.185Z,14.82
2023-01-07T08:20:30.045Z,17.00
2023-01-07T08:22:59.688Z,15.15
2023-01-07T08:25:28.174Z,13.25
2023-01-07T08:27:58.192Z,14.07
2023-01-07T08:30:26.934Z,15.05
2023-01-07T08:32:55.217Z,15.85
2023-01-07T08:35:23.503Z,17.00
2023-01-07T08:37:51.654Z,16.50
2023-01-07T08:40:20.105Z,15.90
2023-01-07T08:42:48.269Z,15.50
2023-01-07T08:45:18.014Z,16.52
2023-01-07T08:47:48.508Z,16.42
2023-01-07T08:50:17.203Z,18.30
2023-01-07T08:52:47.243Z,19.33
2023-01-07T08:55:15.924Z,16.40
2023-01-07T08:57:44.299Z,14.98
2023-01-07T09:00:15.755Z,15.93
2023-01-07T09:02:46.407Z,15.93
2023-01-07T09:05:14.999Z,15.38
2023-01-07T09:07:43.867Z,14.15
2023-01-07T09:10:12.839Z,14.30
2023-01-07T09:12:41.070Z,15.05
2023-01-07T09:15:10.605Z,14.05
2023-01-07T09:17:38.926Z,14.05
2023-01-07T09:20:10.254Z,14.68
2023-01-07T09:22:38.867Z,14.27
2023-01-07T09:25:07.790Z,14.15
2023-01-07T09:27:37.378Z,14.88
2023-01-07T09:30:08.357Z,15.27
2023-01-07T09:32:36.786Z,16.55
2023-01-07T09:35:05.350Z,17.27
2023-01-07T09:37:34.900Z,17.50
2023-01-07T09:40:03.744Z,17.25
2023-01-07T09:42:40.603Z,17.70
2023-01-07T09:45:18.259Z,15.73
2023-01-07T09:47:50.271Z,16.65
2023-01-07T09:50:28.636Z,17.45
2023-01-07T09:53:04.358Z,16.33
2023-01-07T09:55:35.845Z,16.55
2023-01-07T09:58:04.466Z,16.92
2023-01-07T10:00:36.092Z,15.82
2023-01-07T10:03:18.562Z,17.50
2023-01-07T10:05:56.694Z,17.02
2023-01-07T10:08:37.133Z,16.90
2023-01-07T10:11:16.037Z,16.58
2023-01-07T10:13:55.843Z,17.10
2023-01-07T10:16:33.266Z,17.73
2023-01-07T10:19:08.376Z,15.90
2023-01-07T10:21:43.679Z,16.38
2023-01-07T10:24:21.765Z,16.95
2023-01-07T10:26:54.117Z,16.85
2023-01-07T10:29:28.236Z,17.23
2023-01-07T10:31:58.087Z,16.50
2023-01-07T10:34:33.561Z,16.73
2023-01-07T10:37:04.247Z,16.52
2023-01-07T10:39:45.083Z,16.55
2023-01-07T10:42:18.163Z,15.93
2023-01-07T10:45:16.135Z,16.15
2023-01-07T10:48:17.157Z,16.30
2023-01-07T10:51:03.444Z,16.02
2023-01-07T10:53:40.976Z,16.92
2023-01-07T10:56:21.134Z,17.40
2023-01-07T10:58:51.454Z,16.67
2023-01-07T11:01:25.057Z,18.30
2023-01-07T11:03:55.396Z,17.05
2023-01-07T11:06:32.976Z,17.27
2023-01-07T11:09:05.380Z,16.95
2023-01-07T11:11:35.201Z,17.25
2023-01-07T11:14:07.406Z,16.73
2023-01-07T11:16:41.926Z,16.75
2023-01-07T11:19:12.231Z,15.93
2023-01-07T11:21:44.787Z,15.43
2023-01-07T11:24:33.761Z,16.45
2023-01-07T11:27:15.416Z,16.25
2023-01-07T11:29:45.788Z,16.88
2023-01-07T11:32:23.400Z,15.38
2023-01-07T11:34:57.384Z,17.08
2023-01-07T11:37:38.765Z,16.00
2023-01-07T11:40:20.731Z,17.02
2023-01-07T11:42:52.692Z,16.15
2023-01-07T11:45:23.105Z,15.77
2023-01-07T11:48:00.120Z,16.15
2023-01-07T11:50:34.679Z,15.98
2023-01-07T11:53:10.809Z,15.52
2023-01-07T11:55:39.168Z,16.15
2023-01-07T11:58:28.649Z,16.27
2023-01-07T12:01:19.982Z,15.75
2023-01-07T12:04:20.066Z,15.25
2023-01-07T12:06:50.942Z,16.40
2023-01-07T12:09:35.254Z,15.65
2023-01-07T12:12:31.434Z,15.63
2023-01-07T12:15:04.890Z,14.63
2023-01-07T12:17:36.101Z,15.15
2023-01-07T12:20:41.057Z,14.38
2023-01-07T12:23:24.543Z,13.93
2023-01-07T12:26:00.896Z,16.25
2023-01-07T12:28:41.815Z,15.70
2023-01-07T12:31:31.659Z,15.82
2023-01-07T12:34:08.795Z,15.07
2023-01-07T12:36:43.666Z,19.25
2023-01-07T12:39:17.385Z,19.52
2023-01-07T12:41:55.036Z,19.05
2023-01-07T12:44:23.852Z,19.20
2023-01-07T12:47:29.825Z,18.77
2023-01-07T12:49:56.747Z,18.30
2023-01-07T12:52:34.023Z,18.67
2023-01-07T12:55:09.880Z,17.80
2023-01-07T12:57:39.976Z,16.77
2023-01-07T13:00:15.953Z,16.95
2023-01-07T13:02:55.535Z,15.95
2023-01-07T13:05:29.016Z,15.63
2023-01-07T13:08:04.213Z,14.45
2023-01-07T13:10:39.432Z,14.52
2023-01-07T13:13:14.954Z,14.50
2023-01-07T13:15:43.263Z,15.00
2023-01-07T13:18:18.278Z,14.00
2023-01-07T13:20:59.068Z,14.70
2023-01-07T13:23:35.798Z,14.48
2023-01-07T13:26:17.681Z,14.68
2023-01-07T13:29:08.008Z,14.88
2023-01-07T13:31:54.863Z,14.85
2023-01-07T13:34:32.696Z,14.43
2023-01-07T13:37:17.162Z,14.68
2023-01-07T13:40:08.946Z,17.20
2023-01-07T13:42:46.116Z,17.27
2023-01-07T13:45:18.224Z,17.95
2023-01-07T13:47:50.579Z,18.15
2023-01-07T13:50:23.996Z,18.85
2023-01-07T13:53:01.960Z,18.08
2023-01-07T13:55:40.620Z,18.73
2023-01-07T13:58:37.147Z,19.27
2023-01-07T14:01:08.447Z,17.92
2023-01-07T14:03:42.377Z,20.23
2023-01-07T14:06:52.013Z,20.70
2023-01-07T14:09:35.015Z,19.58
2023-01-07T14:12:22.996Z,19.70
2023-01-07T14:14:58.296Z,20.80
2023-01-07T14:17:34.050Z,20.02
2023-01-07T14:20:08.572Z,20.30
2023-01-07T14:22:48.633Z,20.27
2023-01-07T14:25:33.476Z,19.08
2023-01-07T14:28:30.503Z,20.55
2023-01-07T14:30:59.309Z,20.33
2023-01-07T14:33:31.897Z,19.48
2023-01-07T14:36:02.544Z,19.15
2023-01-07T14:39:05.922Z,18.08
2023-01-07T14:41:34.409Z,16.95
2023-01-07T14:44:21.656Z,16.77
2023-01-07T14:46:51.716Z,14.40
2023-01-07T14:49:57.071Z,13.88
2023-01-07T14:52:50.048Z,13.88
2023-01-07T14:55:47.620Z,13.80
2023-01-07T14:58:34.600Z,12.63
2023-01-07T15:01:28.432Z,12.52
2023-01-07T15:04:19.031Z,13.57
2023-01-07T15:06:48.328Z,13.18
2023-01-07T15:09:37.693Z,13.23
2023-01-07T15:12:33.003Z,13.40
2023-01-07T15:15:25.111Z,12.48
2023-01-07T15:17:53.380Z,12.50
2023-01-07T15:20:21.679Z,12.07
2023-01-07T15:23:09.738Z,11.88
2023-01-07T15:25:50.731Z,12.32
2023-01-07T15:28:28.116Z,12.27
2023-01-07T15:31:02.461Z,12.63
2023-01-07T15:33:43.349Z,13.60
2023-01-07T15:36:15.660Z,12.70
2023-01-07T15:38:50.184Z,12.88
2023-01-07T15:41:31.727Z,12.95
2023-01-07T15:44:03.668Z,13.80
2023-01-07T15:46:33.079Z,13.45
2023-01-07T15:49:19.159Z,14.23
2023-01-07T15:51:49.138Z,13.15
2023-01-07T15:54:29.855Z,13.38
2023-01-07T15:57:01.762Z,13.85
2023-01-07T15:59:33.130Z,13.70
2023-01-07T16:02:25.471Z,14.00
2023-01-07T16:04:55.408Z,14.50
2023-01-07T16:07:28.512Z,13.70
2023-01-07T16:09:57.756Z,14.32
2023-01-07T16:12:31.238Z,14.32
2023-01-07T16:15:02.918Z,14.95
2023-01-07T16:17:32.175Z,15.18
2023-01-07T16:20:11.300Z,14.45
2023-01-07T16:22:41.564Z,15.30
2023-01-07T16:25:14.502Z,14.68
2023-01-07T16:27:43.221Z,15.30
2023-01-07T16:30:15.941Z,15.32
2023-01-07T16:32:45.418Z,15.40
2023-01-07T16:35:19.783Z,16.08
2023-01-07T16:37:49.793Z,16.75
2023-01-07T16:40:22.635Z,16.17
2023-01-07T16:42:51.138Z,16.52
2023-01-07T16:45:29.621Z,16.40
2023-01-07T16:48:18.568Z,16.55
2023-01-07T16:50:48.632Z,15.73
2023-01-07T16:53:29.323Z,16.00
2023-01-07T16:56:16.463Z,17.73
2023-01-07T16:58:49.932Z,18.13
2023-01-07T17:01:22.695Z,18.88
2023-01-07T17:03:56.307Z,17.58
2023-01-07T17:06:27.212Z,17.27
2023-01-07T17:08:57.241Z,17.77
2023-01-07T17:11:32.686Z,17.63
2023-01-07T17:14:01.087Z,17.10
2023-01-07T17:16:32.529Z,17.98
2023-01-07T17:19:24.683Z,16.55
2023-01-07T17:21:53.283Z,17.30
2023-01-07T17:24:54.984Z,16.48
2023-01-07T17:27:28.490Z,16.85
2023-01-07T17:29:57.393Z,17.25
2023-01-07T17:32:26.991Z,17.48
2023-01-07T17:34:56.163Z,18.20
2023-01-07T17:37:24.365Z,18.75
2023-01-07T17:39:52.581Z,18.25
2023-01-07T17:42:40.473Z,20.75
2023-01-07T17:45:14.585Z,20.23
2023-01-07T17:47:44.223Z,20.77
2023-01-07T17:50:14.952Z,21.42
2023-01-07T17:52:45.508Z,21.52
2023-01-07T17:55:18.147Z,21.80
2023-01-07T17:57:46.454Z,22.63
2023-01-07T18:00:17.724Z,21.95
2023-01-07T18:02:47.634Z,21.98
2023-01-07T18:05:18.542Z,22.70
2023-01-07T18:07:46.834Z,24.23
2023-01-07T18:10:16.506Z,22.80
2023-01-07T18:12:44.587Z,22.90
2023-01-07T18:15:21.553Z,23.02
2023-01-07T18:17:51.370Z,24.67
2023-01-07T18:20:20.901Z,24.85
2023-01-07T18:22:49.787Z,25.52
2023-01-07T18:25:20.200Z,25.90
2023-01-07T18:27:49.402Z,26.20
2023-01-07T18:30:20.541Z,25.83
2023-01-07T18:32:53.054Z,26.20
2023-01-07T18:35:22.829Z,26.92
2023-01-07T18:37:51.551Z,27.63
2023-01-07T18:40:20.260Z,28.50
2023-01-07T18:42:49.035Z,30.50
2023-01-07T18:45:17.297Z,28.80
2023-01-07T18:47:46.332Z,28.15
2023-01-07T18:50:16.775Z,30.48
2023-01-07T18:52:44.970Z,30.67
2023-01-07T18:55:16.130Z,31.13
2023-01-07T18:57:44.348Z,33.45
2023-01-07T19:00:13.693Z,33.50
2023-01-07T19:02:41.983Z,32.78
2023-01-07T19:05:10.452Z,33.75
2023-01-07T19:07:41.409Z,35.30
2023-01-07T19:10:10.452Z,35.25
2023-01-07T19:12:39.084Z,36.08
2023-01-07T19:15:08.357Z,35.50
2023-01-07T19:17:36.565Z,34.45
2023-01-07T19:20:05.186Z,34.40
2023-01-07T19:22:33.404Z,32.55
2023-01-07T19:25:03.144Z,33.95
2023-01-07T19:27:31.475Z,33.60
2023-01-07T19:29:59.693Z,32.00
2023-01-07T19:32:29.771Z,32.25
2023-01-07T19:34:58.031Z,32.20
2023-01-07T19:37:26.231Z,31.73
2023-01-07T19:39:54.525Z,31.25
2023-01-07T19:42:24.308Z,31.05
2023-01-07T19:44:52.504Z,32.53
2023-01-07T19:47:20.627Z,31.00
2023-01-07T19:49:48.899Z,33.47
2023-01-07T19:52:17.553Z,29.27
2023-01-07T19:54:45.760Z,30.75
2023-01-07T19:57:14.034Z,30.60
2023-01-07T19:59:43.703Z,30.77
2023-01-07T20:02:13.813Z,29.25
2023-01-07T20:04:43.123Z,30.27
2023-01-07T20:07:11.348Z,29.58
2023-01-07T20:09:40.636Z,29.30
2023-01-07T20:12:09.195Z,30.45
2023-01-07T20:14:37.417Z,28.70
2023-01-07T20:17:06.892Z,28.90
2023-01-07T20:19:35.190Z,27.92
2023-01-07T20:22:03.463Z,28.52
2023-01-07T20:24:32.982Z,27.13
2023-01-07T20:27:01.263Z,26.20
2023-01-07T20:29:29.922Z,27.50
2023-01-07T20:31:58.184Z,28.17
2023-01-07T20:34:27.830Z,27.45
2023-01-07T20:36:55.979Z,27.33
2023-01-07T20:39:24.187Z,26.52
2023-01-07T20:41:52.358Z,27.75
2023-01-07T20:44:21.760Z,28.38
2023-01-07T20:46:49.921Z,25.92
2023-01-07T20:49:18.403Z,27.00
2023-01-07T20:51:47.903Z,26.92
2023-01-07T20:54:16.094Z,27.17
2023-01-07T20:56:45.396Z,26.90
2023-01-07T20:59:15.849Z,27.27
2023-01-07T21:01:44.271Z,25.67
2023-01-07T21:04:13.935Z,26.05
2023-01-07T21:06:42.190Z,25.77
2023-01-07T21:09:12.318Z,26.08
2023-01-07T21:11:40.798Z,26.50
2023-01-07T21:14:09.020Z,25.63
2023-01-07T21:16:37.524Z,27.17
2023-01-07T21:19:05.881Z,26.30
2023-01-07T21:21:34.049Z,27.20
2023-01-07T21:24:02.327Z,27.73
2023-01-07T21:26:32.217Z,27.17
2023-01-07T21:29:00.494Z,26.30
2023-01-07T21:31:28.769Z,26.95
2023-01-07T21:33:58.555Z,26.08
2023-01-07T21:36:28.466Z,27.55
2023-01-07T21:38:58.964Z,26.60
2023-01-07T21:41:28.379Z,27.02
2023-01-07T21:43:57.953Z,28.02
2023-01-07T21:46:26.283Z,27.60
2023-01-07T21:48:54.515Z,28.15
2023-01-07T21:51:24.494Z,28.40
2023-01-07T21:53:55.663Z,27.63
2023-01-07T21:56:25.003Z,27.52
2023-01-07T21:58:53.407Z,28.40
2023-01-07T22:01:28.357Z,27.90
2023-01-07T22:03:59.014Z,26.85
2023-01-07T22:06:29.231Z,27.52
2023-01-07T22:08:59.834Z,28.17
2023-01-07T22:11:29.272Z,28.23
2023-01-07T22:13:59.155Z,26.60
2023-01-07T22:16:30.965Z,27.88
2023-01-07T22:18:59.333Z,28.25
2023-01-07T22:21:28.158Z,27.88
2023-01-07T22:23:56.450Z,27.70
2023-01-07T22:26:24.680Z,28.65
2023-01-07T22:28:54.852Z,28.02
2023-01-07T22:31:25.334Z,28.35
2023-01-07T22:33:55.846Z,27.95
2023-01-07T22:36:29.912Z,28.25
2023-01-07T22:39:02.871Z,27.98
2023-01-07T22:41:32.689Z,27.77
2023-01-07T22:44:03.491Z,29.45
2023-01-07T22:46:34.205Z,28.80
2023-01-07T22:49:04.032Z,29.48
2023-01-07T22:51:38.805Z,29.02
2023-01-07T22:54:08.794Z,28.55
2023-01-07T22:56:37.153Z,27.40
2023-01-07T22:59:05.480Z,29.38
2023-01-07T23:01:33.705Z,28.63
2023-01-07T23:04:03.528Z,28.83
2023-01-07T23:06:31.736Z,29.70
2023-01-07T23:09:00.010Z,29.48
2023-01-07T23:11:51.133Z,28.55
2023-01-07T23:14:21.266Z,29.38
2023-01-07T23:16:50.199Z,29.70
2023-01-07T23:19:21.322Z,30.10
2023-01-07T23:21:51.546Z,30.60
2023-01-07T23:24:20.202Z,28.38
2023-01-07T23:26:49.782Z,29.25
2023-01-07T23:29:18.750Z,27.60
2023-01-07T23:31:47.182Z,29.98
2023-01-07T23:34:16.399Z,28.83
2023-01-07T23:36:46.047Z,29.02
2023-01-07T23:39:14.505Z,27.10
2023-01-07T23:41:42.762Z,27.08
2023-01-07T23:44:11.001Z,28.48
2023-01-07T23:46:39.224Z,27.30
2023-01-07T23:49:07.390Z,27.85
2023-01-07T23:51:36.051Z,27.45
2023-01-07T23:54:05.673Z,27.30
2023-01-07T23:56:34.448Z,27.17
2023-01-07T23:59:03.221Z,26.40
